createdAt,value
2023-02-22T00:02:10.504Z,6.70
2023-02-22T00:04:39.664Z,7.27
2023-02-22T00:07:07.875Z,6.63
2023-02-22T00:09:34.979Z,6.80
2023-02-22T00:12:02.205Z,6.90
2023-02-22T00:14:29.167Z,6.70
2023-02-22T00:16:59.370Z,6.63
2023-02-22T00:19:28.033Z,6.97
2023-02-22T00:21:55.218Z,7.63
2023-02-22T00:24:24.657Z,6.93
2023-02-22T00:26:55.721Z,7.27
2023-02-22T00:29:24.180Z,6.83
2023-02-22T00:31:51.650Z,6.43
2023-02-22T00:34:18.829Z,6.80
2023-02-22T00:36:49.741Z,7.70
2023-02-22T00:39:16.964Z,6.40
2023-02-22T00:41:44.127Z,7.20
2023-02-22T00:44:11.853Z,6.00
2023-02-22T00:46:38.804Z,5.70
2023-02-22T00:49:05.693Z,5.93
2023-02-22T00:51:33.862Z,6.70
2023-02-22T00:54:01.406Z,6.80
2023-02-22T00:56:28.727Z,7.20
2023-02-22T00:58:55.966Z,7.30
2023-02-22T01:01:24.115Z,7.20
2023-02-22T01:03:51.449Z,6.80
2023-02-22T01:06:19.274Z,6.60
2023-02-22T01:08:47.719Z,7.20
2023-02-22T01:11:17.155Z,7.10
2023-02-22T01:13:45.314Z,7.50
2023-02-22T01:16:12.279Z,7.57
2023-02-22T01:18:39.314Z,6.57
2023-02-22T01:21:06.990Z,7.00
2023-02-22T01:23:33.947Z,7.27
2023-02-22T01:26:00.908Z,7.37
2023-02-22T01:28:29.248Z,6.73
2023-02-22T01:30:56.484Z,6.93
2023-02-22T01:33:23.744Z,6.80
2023-02-22T01:35:51.467Z,7.23
2023-02-22T01:38:18.478Z,6.70
2023-02-22T01:40:50.557Z,5.90
2023-02-22T01:43:27.980Z,7.00
2023-02-22T01:46:18.174Z,7.80
2023-02-22T01:48:52.361Z,7.10
2023-02-22T01:51:46.430Z,6.47
2023-02-22T01:54:31.377Z,7.03
2023-02-22T01:57:24.147Z,6.30
2023-02-22T01:59:58.003Z,6.60
2023-02-22T02:02:26.274Z,7.90
2023-02-22T02:04:56.468Z,8.60
2023-02-22T02:07:24.838Z,8.30
2023-02-22T02:09:58.690Z,8.03
2023-02-22T02:12:28.812Z,8.10
2023-02-22T02:15:29.215Z,8.77
2023-02-22T02:18:00.794Z,12.37
2023-02-22T02:20:36.453Z,8.30
2023-02-22T02:24:09.953Z,7.03
2023-02-22T02:27:11.244Z,7.30
2023-02-22T02:30:18.447Z,6.77
2023-02-22T02:33:02.762Z,7.03
2023-02-22T02:36:00.297Z,7.03
2023-02-22T02:39:08.139Z,6.60
2023-02-22T02:41:40.769Z,6.93
2023-02-22T02:44:40.027Z,7.07
2023-02-22T02:47:17.360Z,7.43
2023-02-22T02:50:09.287Z,8.00
2023-02-22T02:52:38.269Z,7.30
2023-02-22T02:55:08.662Z,6.50
2023-02-22T02:57:35.617Z,7.00
2023-02-22T03:00:02.490Z,6.20
2023-02-22T03:02:34.564Z,8.47
2023-02-22T03:05:18.329Z,7.97
2023-02-22T03:07:47.013Z,7.10
2023-02-22T03:11:14.942Z,7.10
2023-02-22T03:14:11.747Z,7.07
2023-02-22T03:16:51.935Z,6.43
2023-02-22T03:19:35.662Z,6.70
2023-02-22T03:22:27.532Z,6.00
2023-02-22T03:25:02.083Z,6.07
2023-02-22T03:27:53.308Z,5.80
2023-02-22T03:30:33.696Z,5.90
2023-02-22T03:33:09.020Z,6.30
2023-02-22T03:35:42.826Z,6.63
2023-02-22T03:38:16.052Z,5.30
2023-02-22T03:40:47.223Z,6.63
2023-02-22T03:43:25.009Z,5.97
2023-02-22T03:45:53.244Z,5.40
2023-02-22T03:49:00.008Z,6.10
2023-02-22T03:51:27.771Z,5.63
2023-02-22T03:53:54.999Z,5.63
2023-02-22T03:56:35.846Z,6.60
2023-02-22T03:59:09.378Z,6.93
2023-02-22T04:01:36.924Z,6.60
2023-02-22T04:04:04.530Z,6.03
2023-02-22T04:06:31.727Z,7.80
2023-02-22T04:08:58.602Z,6.53
2023-02-22T04:11:25.718Z,7.47
2023-02-22T04:13:54.817Z,6.10
2023-02-22T04:16:21.843Z,6.47
2023-02-22T04:18:48.723Z,7.10
2023-02-22T04:21:15.854Z,7.07
2023-02-22T04:23:42.977Z,6.50
2023-02-22T04:26:10.027Z,6.90
2023-02-22T04:28:36.905Z,6.63
2023-02-22T04:31:04.323Z,8.10
2023-02-22T04:33:31.608Z,7.20
2023-02-22T04:35:59.437Z,6.93
2023-02-22T04:38:27.111Z,6.23
2023-02-22T04:40:54.966Z,6.17
2023-02-22T04:43:22.409Z,5.67
2023-02-22T04:45:49.314Z,5.13
2023-02-22T04:48:16.584Z,5.70
2023-02-22T04:50:43.560Z,5.97
2023-02-22T04:53:10.831Z,6.17
2023-02-22T04:55:37.693Z,6.00
2023-02-22T04:58:04.825Z,5.60
2023-02-22T05:00:31.841Z,5.60
2023-02-22T05:02:58.693Z,5.53
2023-02-22T05:05:25.685Z,4.60
2023-02-22T05:07:53.296Z,5.47
2023-02-22T05:10:20.683Z,5.00
2023-02-22T05:12:47.642Z,4.77
2023-02-22T05:15:22.861Z,5.30
2023-02-22T05:17:49.724Z,5.77
2023-02-22T05:20:32.494Z,5.03
2023-02-22T05:23:03.729Z,6.37
2023-02-22T05:25:30.640Z,5.70
2023-02-22T05:28:08.355Z,5.90
2023-02-22T05:30:39.552Z,5.77
2023-02-22T05:33:07.581Z,5.70
2023-02-22T05:35:34.619Z,5.20
2023-02-22T05:38:03.233Z,5.80
2023-02-22T05:40:30.649Z,5.70
2023-02-22T05:42:58.923Z,6.13
2023-02-22T05:45:27.758Z,7.03
2023-02-22T05:47:55.551Z,6.67
2023-02-22T05:50:23.268Z,6.60
2023-02-22T05:52:50.567Z,6.60
2023-02-22T05:55:20.270Z,7.37
2023-02-22T05:57:47.597Z,7.30
2023-02-22T06:00:27.923Z,5.80
2023-02-22T06:03:08.092Z,6.60
2023-02-22T06:05:35.905Z,7.23
2023-02-22T06:08:05.646Z,6.40
2023-02-22T06:10:32.932Z,6.50
2023-02-22T06:13:01.662Z,6.40
2023-02-22T06:15:29.626Z,6.43
2023-02-22T06:17:58.839Z,6.40
2023-02-22T06:20:28.008Z,5.93
2023-02-22T06:22:57.661Z,6.17
2023-02-22T06:25:28.657Z,5.97
2023-02-22T06:27:55.565Z,6.07
2023-02-22T06:30:25.358Z,5.80
2023-02-22T06:32:52.621Z,6.20
2023-02-22T06:35:20.170Z,5.20
2023-02-22T06:37:48.683Z,5.83
2023-02-22T06:40:17.103Z,5.63
2023-02-22T06:42:44.444Z,5.50
2023-02-22T06:45:11.759Z,5.70
2023-02-22T06:47:41.290Z,5.10
2023-02-22T06:50:28.923Z,5.30
2023-02-22T06:52:57.005Z,7.70
2023-02-22T06:55:33.538Z,6.03
2023-02-22T06:58:01.008Z,8.40
2023-02-22T07:00:29.932Z,6.10
2023-02-22T07:02:58.137Z,6.50
2023-02-22T07:05:26.941Z,7.17
2023-02-22T07:07:56.577Z,6.63
2023-02-22T07:10:30.082Z,6.67
2023-02-22T07:12:57.146Z,7.17
2023-02-22T07:15:27.883Z,6.73
2023-02-22T07:17:55.029Z,7.47
2023-02-22T07:20:24.498Z,7.40
2023-02-22T07:22:51.881Z,6.40
2023-02-22T07:25:19.398Z,7.10
2023-02-22T07:27:47.404Z,6.57
2023-02-22T07:30:25.117Z,7.77
2023-02-22T07:32:54.348Z,7.70
2023-02-22T07:35:49.569Z,6.53
2023-02-22T07:38:19.008Z,5.70
2023-02-22T07:40:46.455Z,6.10
2023-02-22T07:43:19.671Z,5.63
2023-02-22T07:45:48.315Z,5.90
2023-02-22T07:48:17.576Z,6.40
2023-02-22T07:50:44.878Z,5.60
2023-02-22T07:53:33.423Z,5.90
2023-02-22T07:56:05.714Z,6.73
2023-02-22T07:58:33.543Z,6.50
2023-02-22T08:01:03.701Z,6.47
2023-02-22T08:03:36.665Z,8.70
2023-02-22T08:06:07.043Z,8.07
2023-02-22T08:08:34.536Z,6.80
2023-02-22T08:11:01.877Z,8.10
2023-02-22T08:13:29.724Z,7.43
2023-02-22T08:15:56.734Z,7.93
2023-02-22T08:18:25.259Z,8.03
2023-02-22T08:20:53.582Z,7.80
2023-02-22T08:23:25.356Z,7.73
2023-02-22T08:25:52.737Z,8.13
2023-02-22T08:28:23.434Z,8.37
2023-02-22T08:30:51.744Z,8.60
2023-02-22T08:33:19.920Z,8.43
2023-02-22T08:35:51.684Z,8.07
2023-02-22T08:38:30.912Z,8.43
2023-02-22T08:40:58.155Z,9.00
2023-02-22T08:43:25.281Z,8.37
2023-02-22T08:45:52.703Z,8.73
2023-02-22T08:48:21.133Z,9.13
2023-02-22T08:50:49.130Z,8.50
2023-02-22T08:53:16.871Z,8.87
2023-02-22T08:55:44.822Z,9.10
2023-02-22T08:58:12.252Z,8.90
2023-02-22T09:00:41.388Z,9.37
2023-02-22T09:03:13.366Z,9.23
2023-02-22T09:05:42.276Z,9.03
2023-02-22T09:08:09.658Z,8.63
2023-02-22T09:10:36.808Z,8.77
2023-02-22T09:13:04.720Z,9.23
2023-02-22T09:15:34.116Z,8.57
2023-02-22T09:18:01.255Z,9.10
2023-02-22T09:20:29.421Z,8.33
2023-02-22T09:22:56.954Z,8.77
2023-02-22T09:25:24.348Z,8.67
2023-02-22T09:27:53.296Z,8.90
2023-02-22T09:30:33.534Z,8.60
2023-02-22T09:33:09.990Z,8.17
2023-02-22T09:35:46.445Z,8.90
2023-02-22T09:38:22.712Z,8.50
2023-02-22T09:41:12.263Z,8.50
2023-02-22T09:43:47.764Z,8.63
2023-02-22T09:46:35.159Z,8.43
2023-02-22T09:49:40.682Z,8.50
2023-02-22T09:52:31.527Z,8.80
2023-02-22T09:55:25.691Z,9.23
2023-02-22T09:57:55.501Z,8.10
2023-02-22T10:00:37.967Z,8.23
2023-02-22T10:03:32.845Z,7.90
2023-02-22T10:06:11.192Z,7.97
2023-02-22T10:08:39.584Z,8.17
2023-02-22T10:11:31.193Z,8.00
2023-02-22T10:14:07.406Z,8.30
2023-02-22T10:17:20.681Z,8.10
2023-02-22T10:20:13.448Z,8.87
2023-02-22T10:23:02.300Z,9.00
2023-02-22T10:25:35.334Z,8.90
2023-02-22T10:28:07.805Z,7.50
2023-02-22T10:30:42.617Z,7.70
2023-02-22T10:33:19.189Z,8.40
2023-02-22T10:35:47.276Z,8.10
2023-02-22T10:38:29.656Z,8.77
2023-02-22T10:41:09.360Z,8.77
2023-02-22T10:43:41.776Z,9.17
2023-02-22T10:46:15.589Z,8.57
2023-02-22T10:48:45.938Z,10.57
2023-02-22T10:51:13.974Z,8.53
2023-02-22T10:53:40.980Z,9.20
2023-02-22T10:56:23.212Z,9.30
2023-02-22T10:59:02.319Z,8.70
2023-02-22T11:01:32.406Z,9.77
2023-02-22T11:04:17.127Z,10.27
2023-02-22T11:06:48.716Z,9.43
2023-02-22T11:09:18.721Z,9.60
2023-02-22T11:11:48.692Z,9.40
2023-02-22T11:14:31.147Z,9.80
2023-02-22T11:16:59.642Z,9.30
2023-02-22T11:19:32.877Z,9.00
2023-02-22T11:22:12.186Z,8.80
2023-02-22T11:24:59.322Z,9.60
2023-02-22T11:27:41.117Z,10.40
2023-02-22T11:30:31.567Z,9.47
2023-02-22T11:33:00.334Z,9.50
2023-02-22T11:35:37.009Z,9.80
2023-02-22T11:38:37.089Z,8.73
2023-02-22T11:41:29.398Z,9.53
2023-02-22T11:44:21.839Z,10.90
2023-02-22T11:46:48.921Z,9.57
2023-02-22T11:49:17.361Z,9.83
2023-02-22T11:52:01.137Z,9.50
2023-02-22T11:54:36.788Z,7.80
2023-02-22T11:57:41.422Z,8.37
2023-02-22T12:00:41.067Z,9.17
2023-02-22T12:04:17.023Z,8.83
2023-02-22T12:07:25.310Z,9.63
2023-02-22T12:10:08.437Z,8.20
2023-02-22T12:12:53.309Z,9.00
2023-02-22T12:15:20.592Z,9.60
2023-02-22T12:18:26.766Z,7.70
2023-02-22T12:21:00.148Z,8.97
2023-02-22T12:24:02.652Z,8.50
2023-02-22T12:27:01.576Z,8.80
2023-02-22T12:29:44.074Z,8.90
2023-02-22T12:32:23.802Z,7.57
2023-02-22T12:34:56.448Z,8.67
2023-02-22T12:37:35.445Z,7.80
2023-02-22T12:40:08.537Z,7.83
2023-02-22T12:42:55.537Z,7.47
2023-02-22T12:45:39.978Z,7.40
2023-02-22T12:48:31.389Z,8.30
2023-02-22T12:51:16.548Z,7.50
2023-02-22T12:54:02.233Z,7.10
2023-02-22T12:56:57.588Z,7.73
2023-02-22T12:59:44.416Z,7.70
2023-02-22T13:02:21.441Z,7.83
2023-02-22T13:04:49.996Z,7.27
2023-02-22T13:07:38.849Z,7.37
2023-02-22T13:10:39.357Z,7.67
2023-02-22T13:13:24.879Z,8.30
2023-02-22T13:16:30.854Z,9.30
2023-02-22T13:19:25.213Z,8.00
2023-02-22T13:22:39.376Z,8.97
2023-02-22T13:25:27.536Z,7.30
2023-02-22T13:28:21.767Z,7.87
2023-02-22T13:31:12.960Z,8.37
2023-02-22T13:34:28.351Z,8.37
2023-02-22T13:37:08.871Z,8.30
2023-02-22T13:39:48.261Z,8.60
2023-02-22T13:42:52.545Z,8.90
2023-02-22T13:46:12.529Z,7.93
2023-02-22T13:49:20.136Z,8.10
2023-02-22T13:51:48.782Z,9.20
2023-02-22T13:54:21.693Z,8.57
2023-02-22T13:56:51.080Z,8.33
2023-02-22T13:59:30.927Z,10.07
2023-02-22T14:02:00.385Z,9.13
2023-02-22T14:04:27.265Z,8.67
2023-02-22T14:06:55.046Z,8.77
2023-02-22T14:10:01.746Z,8.63
2023-02-22T14:12:33.513Z,9.37
2023-02-22T14:15:28.325Z,8.30
2023-02-22T14:18:05.235Z,8.03
2023-02-22T14:20:38.211Z,9.40
2023-02-22T14:23:40.408Z,8.80
2023-02-22T14:26:37.468Z,8.40
2023-02-22T14:29:10.032Z,7.90
2023-02-22T14:31:51.931Z,8.50
2023-02-22T14:34:50.884Z,7.33
2023-02-22T14:37:21.391Z,7.60
2023-02-22T14:40:02.169Z,8.43
2023-02-22T14:42:34.621Z,8.10
2023-02-22T14:45:26.119Z,8.40
2023-02-22T14:48:11.645Z,8.20
2023-02-22T14:50:53.572Z,9.13
2023-02-22T14:53:53.099Z,8.33
2023-02-22T14:56:49.166Z,8.53
2023-02-22T14:59:27.465Z,9.13
2023-02-22T15:02:12.890Z,7.90
2023-02-22T15:04:43.957Z,8.17
2023-02-22T15:07:40.632Z,8.43
2023-02-22T15:10:17.641Z,9.53
2023-02-22T15:13:15.707Z,8.70
2023-02-22T15:15:54.931Z,8.10
2023-02-22T15:18:33.486Z,9.20
2023-02-22T15:21:16.273Z,9.40
2023-02-22T15:24:00.684Z,9.00
2023-02-22T15:26:51.859Z,9.80
2023-02-22T15:29:39.241Z,10.23
2023-02-22T15:32:34.166Z,10.47
2023-02-22T15:35:26.913Z,9.70
2023-02-22T15:38:12.163Z,10.07
2023-02-22T15:40:43.236Z,9.90
2023-02-22T15:43:32.293Z,10.57
2023-02-22T15:46:01.004Z,9.07
2023-02-22T15:48:31.679Z,10.13
2023-02-22T15:51:09.341Z,10.13
2023-02-22T15:53:46.413Z,10.20
2023-02-22T15:56:18.729Z,9.20
2023-02-22T15:58:47.914Z,10.10
2023-02-22T16:01:19.149Z,11.77
2023-02-22T16:03:50.537Z,11.80
2023-02-22T16:06:36.318Z,11.53
2023-02-22T16:09:17.288Z,10.47
2023-02-22T16:11:46.577Z,11.40
2023-02-22T16:14:35.958Z,11.23
2023-02-22T16:17:35.647Z,14.27
2023-02-22T16:20:22.562Z,12.30
2023-02-22T16:22:50.496Z,12.93
2023-02-22T16:25:22.385Z,13.80
2023-02-22T16:27:57.458Z,14.53
2023-02-22T16:30:37.472Z,15.47
2023-02-22T16:33:13.450Z,15.27
2023-02-22T16:35:40.998Z,16.20
2023-02-22T16:38:16.928Z,15.50
2023-02-22T16:40:52.414Z,16.07
2023-02-22T16:43:23.071Z,15.80
2023-02-22T16:45:50.278Z,18.20
2023-02-22T16:48:24.148Z,17.20
2023-02-22T16:50:54.609Z,17.80
2023-02-22T16:53:25.626Z,17.07
2023-02-22T16:55:59.267Z,16.07
2023-02-22T16:58:30.258Z,16.93
2023-02-22T17:00:57.817Z,17.90
2023-02-22T17:03:26.446Z,16.83
2023-02-22T17:05:53.751Z,16.97
2023-02-22T17:08:20.853Z,18.13
2023-02-22T17:10:51.483Z,17.70
2023-02-22T17:13:27.329Z,18.47
2023-02-22T17:15:55.179Z,16.60
2023-02-22T17:18:25.009Z,16.40
2023-02-22T17:20:53.104Z,17.70
2023-02-22T17:23:21.707Z,17.13
2023-02-22T17:25:53.925Z,17.77
2023-02-22T17:28:23.655Z,18.47
2023-02-22T17:30:52.411Z,18.50
2023-02-22T17:33:27.765Z,18.40
2023-02-22T17:35:57.820Z,18.80
2023-02-22T17:38:28.831Z,19.30
2023-02-22T17:40:57.725Z,18.00
2023-02-22T17:43:25.690Z,19.57
2023-02-22T17:45:53.812Z,19.63
2023-02-22T17:48:23.888Z,21.47
2023-02-22T17:50:52.185Z,21.30
2023-02-22T17:53:22.724Z,19.63
2023-02-22T17:55:50.703Z,22.00
2023-02-22T17:58:18.095Z,20.67
2023-02-22T18:00:49.258Z,20.20
2023-02-22T18:03:25.490Z,19.67
2023-02-22T18:05:59.658Z,19.33
2023-02-22T18:08:32.077Z,20.17
2023-02-22T18:11:05.098Z,20.57
2023-02-22T18:13:32.047Z,20.67
2023-02-22T18:16:04.893Z,20.60
2023-02-22T18:18:32.415Z,21.63
2023-02-22T18:21:00.039Z,21.87
2023-02-22T18:23:30.505Z,23.07
2023-02-22T18:26:10.541Z,22.50
2023-02-22T18:28:38.811Z,23.87
2023-02-22T18:31:14.481Z,24.23
2023-02-22T18:33:49.067Z,24.97
2023-02-22T18:36:22.540Z,20.07
2023-02-22T18:38:51.939Z,23.63
2023-02-22T18:41:25.123Z,22.93
2023-02-22T18:43:54.491Z,20.87
2023-02-22T18:46:23.263Z,21.50
2023-02-22T18:48:55.518Z,23.90
2023-02-22T18:51:23.850Z,22.80
2023-02-22T18:53:54.936Z,21.63
2023-02-22T18:56:22.414Z,25.60
2023-02-22T18:58:54.340Z,24.80
2023-02-22T19:01:22.105Z,23.17
2023-02-22T19:03:49.425Z,22.43
2023-02-22T19:06:17.746Z,22.90
2023-02-22T19:08:46.132Z,22.83
2023-02-22T19:11:21.833Z,22.30
2023-02-22T19:13:53.870Z,22.47
2023-02-22T19:16:23.353Z,21.13
2023-02-22T19:18:52.749Z,25.57
2023-02-22T19:21:20.757Z,26.60
2023-02-22T19:23:48.860Z,24.20
2023-02-22T19:26:20.836Z,22.80
2023-02-22T19:28:48.774Z,21.70
2023-02-22T19:31:31.297Z,21.17
2023-02-22T19:34:09.039Z,23.10
2023-02-22T19:36:39.761Z,22.60
2023-02-22T19:39:07.240Z,23.23
2023-02-22T19:41:34.223Z,21.43
2023-02-22T19:44:02.472Z,23.27
2023-02-22T19:46:29.583Z,22.27
2023-02-22T19:48:57.223Z,21.97
2023-02-22T19:51:27.945Z,22.30
2023-02-22T19:54:02.467Z,22.90
2023-02-22T19:56:30.798Z,22.47
2023-02-22T19:59:09.182Z,22.37
2023-02-22T20:01:37.230Z,22.50
2023-02-22T20:04:08.453Z,21.73
2023-02-22T20:06:42.702Z,23.50
2023-02-22T20:09:17.824Z,22.30
2023-02-22T20:11:48.573Z,21.50
2023-02-22T20:14:26.101Z,21.67
2023-02-22T20:16:55.583Z,23.20
2023-02-22T20:19:23.557Z,23.33
2023-02-22T20:21:52.352Z,24.57
2023-02-22T20:24:19.558Z,22.50
2023-02-22T20:26:47.994Z,22.33
2023-02-22T20:29:15.967Z,23.47
2023-02-22T20:31:44.531Z,21.30
2023-02-22T20:34:11.937Z,21.93
2023-02-22T20:36:41.828Z,22.43
2023-02-22T20:39:15.885Z,21.53
2023-02-22T20:41:46.129Z,20.20
2023-02-22T20:44:17.107Z,19.83
2023-02-22T20:46:45.091Z,19.60
2023-02-22T20:49:18.795Z,19.63
2023-02-22T20:51:47.926Z,20.30
2023-02-22T20:54:16.252Z,20.33
2023-02-22T20:56:45.463Z,21.37
2023-02-22T20:59:16.225Z,20.37
2023-02-22T21:01:43.572Z,20.50
2023-02-22T21:04:11.382Z,22.20
2023-02-22T21:06:40.373Z,21.03
2023-02-22T21:09:13.741Z,22.57
2023-02-22T21:11:40.801Z,20.77
2023-02-22T21:14:08.827Z,21.30
2023-02-22T21:16:37.281Z,21.70
2023-02-22T21:19:08.166Z,20.10
2023-02-22T21:21:36.098Z,19.90
2023-02-22T21:24:03.089Z,18.80
2023-02-22T21:26:33.544Z,20.10
2023-02-22T21:29:05.382Z,21.33
2023-02-22T21:31:33.975Z,21.07
2023-02-22T21:34:01.833Z,22.80
2023-02-22T21:36:29.685Z,20.53
2023-02-22T21:39:08.322Z,18.90
2023-02-22T21:41:38.742Z,19.00
2023-02-22T21:44:07.718Z,19.80
2023-02-22T21:46:34.813Z,18.90
2023-02-22T21:49:01.766Z,19.90
2023-02-22T21:51:31.738Z,20.83
2023-02-22T21:54:06.134Z,20.33
2023-02-22T21:56:37.825Z,19.27
2023-02-22T21:59:13.595Z,18.20
2023-02-22T22:01:55.793Z,19.80
2023-02-22T22:04:30.652Z,19.43
2023-02-22T22:07:00.405Z,19.70
2023-02-22T22:09:32.802Z,18.50
2023-02-22T22:12:04.955Z,17.63
2023-02-22T22:14:33.390Z,17.90
2023-02-22T22:17:00.982Z,19.27
2023-02-22T22:19:30.149Z,18.47
2023-02-22T22:22:01.088Z,18.87
2023-02-22T22:24:31.934Z,21.37
2023-02-22T22:27:03.594Z,20.07
2023-02-22T22:29:34.221Z,21.33
2023-02-22T22:32:02.017Z,22.17
2023-02-22T22:34:34.369Z,22.37
2023-02-22T22:37:01.345Z,20.77
2023-02-22T22:39:28.524Z,19.50
2023-02-22T22:41:55.562Z,20.20
2023-02-22T22:44:22.978Z,20.97
2023-02-22T22:46:54.709Z,19.33
2023-02-22T22:49:23.702Z,21.23
2023-02-22T22:51:51.136Z,20.17
2023-02-22T22:54:18.282Z,20.10
2023-02-22T22:56:45.449Z,20.60
2023-02-22T22:59:13.436Z,18.23
2023-02-22T23:01:44.538Z,20.27
2023-02-22T23:04:16.947Z,19.30
2023-02-22T23:06:50.665Z,18.13
2023-02-22T23:09:34.650Z,18.50
2023-02-22T23:12:15.036Z,20.40
2023-02-22T23:14:44.439Z,21.30
2023-02-22T23:17:31.291Z,21.63
2023-02-22T23:19:58.576Z,20.67
2023-02-22T23:22:25.534Z,21.63
2023-02-22T23:24:52.558Z,20.43
2023-02-22T23:27:19.561Z,20.50
2023-02-22T23:29:46.692Z,19.13
2023-02-22T23:32:14.217Z,20.30
2023-02-22T23:34:41.664Z,20.77
2023-02-22T23:37:10.521Z,20.00
2023-02-22T23:39:38.314Z,19.87
2023-02-22T23:42:08.682Z,21.40
2023-02-22T23:44:35.560Z,20.43
2023-02-22T23:47:03.825Z,20.70
2023-02-22T23:49:37.912Z,21.33
2023-02-22T23:52:07.771Z,21.03
2023-02-22T23:54:36.743Z,21.27
2023-02-22T23:57:05.299Z,21.70
2023-02-22T23:59:33.769Z,19.60
